createdAt,value
2017-04-08T00:00:25.160Z,1015.45
2017-04-08T00:01:25.182Z,1015.48
2017-04-08T00:02:25.202Z,1015.46
2017-04-08T00:04:25.246Z,1015.48
2017-04-08T00:05:25.267Z,1015.44
2017-04-08T00:06:25.287Z,1015.51
2017-04-08T00:07:25.309Z,1015.49
2017-04-08T00:08:25.330Z,1015.5
2017-04-08T00:09:25.352Z,1015.56
2017-04-08T00:10:25.373Z,1015.51
2017-04-08T00:11:25.394Z,1015.5
2017-04-08T00:12:25.416Z,1015.52
2017-04-08T00:13:25.437Z,1015.51
2017-04-08T00:14:25.458Z,1015.51
2017-04-08T00:15:25.480Z,1015.52
2017-04-08T00:16:25.502Z,1015.57
2017-04-08T00:17:25.521Z,1015.57
2017-04-08T00:18:25.542Z,1015.61
2017-04-08T00:20:25.586Z,1015.6
2017-04-08T00:21:25.606Z,1015.56
2017-04-08T00:22:25.629Z,1015.63
2017-04-08T00:23:25.649Z,1015.62
2017-04-08T00:24:25.669Z,1015.64
2017-04-08T00:25:25.691Z,1015.55
2017-04-08T00:26:25.712Z,1015.63
2017-04-08T00:27:25.734Z,1015.61
2017-04-08T00:28:25.754Z,1015.64
2017-04-08T00:29:25.775Z,1015.64
2017-04-08T00:30:25.798Z,1015.63
2017-04-08T00:31:25.818Z,1015.66
2017-04-08T00:32:25.838Z,1015.66
2017-04-08T00:33:25.860Z,1015.62
2017-04-08T00:34:25.882Z,1015.66
2017-04-08T00:36:25.923Z,1015.71
2017-04-08T00:37:25.945Z,1015.7
2017-04-08T00:38:25.967Z,1015.64
2017-04-08T00:39:25.987Z,1015.65
2017-04-08T00:40:26.010Z,1015.69
2017-04-08T00:41:26.029Z,1015.64
2017-04-08T00:42:26.050Z,1015.7
2017-04-08T00:43:26.072Z,1015.71
2017-04-08T00:44:26.092Z,1015.73
2017-04-08T00:45:26.114Z,1015.75
2017-04-08T00:46:26.134Z,1015.77
2017-04-08T00:47:26.155Z,1015.7
2017-04-08T00:48:26.177Z,1015.75
2017-04-08T00:49:26.198Z,1015.72
2017-04-08T00:50:26.218Z,1015.76
2017-04-08T00:52:26.263Z,1015.72
2017-04-08T00:53:26.282Z,1015.72
2017-04-08T00:54:26.302Z,1015.75
2017-04-08T00:55:26.352Z,1015.7
2017-04-08T00:56:26.346Z,1015.77
2017-04-08T00:57:26.365Z,1015.71
2017-04-08T00:58:26.387Z,1015.74
2017-04-08T00:59:26.409Z,1015.71
2017-04-08T01:00:26.429Z,1015.71
2017-04-08T01:01:26.450Z,1015.79
2017-04-08T01:02:26.472Z,1015.74
2017-04-08T01:03:26.493Z,1015.73
2017-04-08T01:04:26.515Z,1015.72
2017-04-08T01:05:26.535Z,1015.7
2017-04-08T01:07:26.578Z,1015.73
2017-04-08T01:08:26.603Z,1015.68
2017-04-08T01:09:26.619Z,1015.7
2017-04-08T01:10:26.641Z,1015.72
2017-04-08T01:11:26.662Z,1015.7
2017-04-08T01:12:26.682Z,1015.73
2017-04-08T01:13:26.703Z,1015.66
2017-04-08T01:14:26.725Z,1015.72
2017-04-08T01:15:26.746Z,1015.72
2017-04-08T01:16:26.766Z,1015.73
2017-04-08T01:17:26.788Z,1015.72
2017-04-08T01:18:26.810Z,1015.71
2017-04-08T01:19:26.829Z,1015.66
2017-04-08T01:20:26.851Z,1015.68
2017-04-08T01:21:26.872Z,1015.66
2017-04-08T01:22:26.922Z,1015.69
2017-04-08T01:23:26.913Z,1015.67
2017-04-08T01:24:26.935Z,1015.64
2017-04-08T01:25:26.956Z,1015.62
2017-04-08T01:26:26.976Z,1015.64
2017-04-08T01:27:27.006Z,1015.66
2017-04-08T01:28:27.019Z,1015.72
2017-04-08T01:29:27.040Z,1015.63
2017-04-08T01:30:27.061Z,1015.65
2017-04-08T01:31:27.082Z,1015.65
2017-04-08T01:32:27.103Z,1015.61
2017-04-08T01:33:27.124Z,1015.67
2017-04-08T01:34:27.144Z,1015.7
2017-04-08T01:35:27.166Z,1015.68
2017-04-08T01:36:27.187Z,1015.69
2017-04-08T01:37:27.207Z,1015.72
2017-04-08T01:39:27.250Z,1015.7
2017-04-08T01:40:27.271Z,1015.77
2017-04-08T01:41:27.295Z,1015.81
2017-04-08T01:42:27.312Z,1015.8
2017-04-08T01:43:27.334Z,1015.74
2017-04-08T01:44:27.354Z,1015.76
2017-04-08T01:45:27.376Z,1015.79
2017-04-08T01:46:27.397Z,1015.78
2017-04-08T01:47:27.421Z,1015.77
2017-04-08T01:48:27.438Z,1015.82
2017-04-08T01:49:27.459Z,1015.8
2017-04-08T01:50:27.481Z,1015.81
2017-04-08T01:51:27.501Z,1015.82
2017-04-08T01:52:27.522Z,1015.78
2017-04-08T01:53:27.543Z,1015.81
2017-04-08T01:55:27.586Z,1015.8
2017-04-08T01:56:27.606Z,1015.83
2017-04-08T01:57:27.627Z,1015.82
2017-04-08T01:58:27.648Z,1015.82
2017-04-08T01:59:27.670Z,1015.81
2017-04-08T02:00:27.690Z,1015.83
2017-04-08T02:01:27.712Z,1015.9
2017-04-08T02:02:27.732Z,1015.89
2017-04-08T02:03:27.754Z,1015.95
2017-04-08T02:04:27.774Z,1015.97
2017-04-08T02:05:27.795Z,1016
2017-04-08T02:06:27.817Z,1015.95
2017-04-08T02:07:27.837Z,1015.92
2017-04-08T02:08:27.863Z,1015.92
2017-04-08T02:09:27.879Z,1015.93
2017-04-08T02:11:27.921Z,1015.86
2017-04-08T02:12:27.942Z,1015.9
2017-04-08T02:13:27.963Z,1015.88
2017-04-08T02:14:27.983Z,1015.91
2017-04-08T02:15:28.004Z,1015.94
2017-04-08T02:16:28.026Z,1015.94
2017-04-08T02:17:28.047Z,1015.81
2017-04-08T02:18:28.067Z,1015.83
2017-04-08T02:19:28.088Z,1015.92
2017-04-08T02:20:28.110Z,1016
2017-04-08T02:21:28.129Z,1016.02
2017-04-08T02:22:28.151Z,1015.98
2017-04-08T02:23:28.173Z,1015.97
2017-04-08T02:24:28.194Z,1016.01
2017-04-08T02:25:28.214Z,1015.99
2017-04-08T02:27:28.258Z,1015.99
2017-04-08T02:28:28.277Z,1015.99
2017-04-08T02:29:28.298Z,1015.99
2017-04-08T02:30:28.319Z,1016.02
2017-04-08T02:31:28.340Z,1015.99
2017-04-08T02:32:28.359Z,1016.01
2017-04-08T02:33:28.382Z,1016.04
2017-04-08T02:34:28.401Z,1016.04
2017-04-08T02:35:28.423Z,1015.97
2017-04-08T02:36:28.443Z,1016.03
2017-04-08T02:37:28.464Z,1016.02
2017-04-08T02:38:28.485Z,1015.98
2017-04-08T02:39:28.506Z,1016.05
2017-04-08T02:40:28.528Z,1016.05
2017-04-08T02:42:28.569Z,1016.04
2017-04-08T02:43:28.590Z,1016.04
2017-04-08T02:44:28.610Z,1016.08
2017-04-08T02:45:28.632Z,1016.08
2017-04-08T02:46:28.652Z,1016.07
2017-04-08T02:47:28.673Z,1016.09
2017-04-08T02:48:28.694Z,1016.05
2017-04-08T02:49:28.715Z,1016.12
2017-04-08T02:50:28.735Z,1016.08
2017-04-08T02:51:28.756Z,1016.11
2017-04-08T02:52:28.777Z,1016.08
2017-04-08T02:53:28.798Z,1016.05
2017-04-08T02:54:28.818Z,1016.08
2017-04-08T02:55:28.842Z,1016.11
2017-04-08T02:56:28.861Z,1016.1
2017-04-08T02:57:28.882Z,1016.14
2017-04-08T02:58:28.910Z,1016.07
2017-04-08T02:59:28.923Z,1016.14
2017-04-08T03:00:28.943Z,1016.09
2017-04-08T03:01:28.964Z,1016.12
2017-04-08T03:02:28.985Z,1016.09
2017-04-08T03:03:29.036Z,1016.1
2017-04-08T03:04:29.027Z,1016.11
2017-04-08T03:05:29.048Z,1016.11
2017-04-08T03:06:29.069Z,1016.13
2017-04-08T03:07:29.089Z,1016.09
2017-04-08T03:08:29.110Z,1016.1
2017-04-08T03:09:29.130Z,1016.11
2017-04-08T03:10:29.151Z,1016.17
2017-04-08T03:11:29.172Z,1016.14
2017-04-08T03:12:29.192Z,1016.21
2017-04-08T03:14:29.234Z,1016.2
2017-04-08T03:15:29.256Z,1016.2
2017-04-08T03:16:29.275Z,1016.13
2017-04-08T03:17:29.297Z,1016.17
2017-04-08T03:18:29.317Z,1016.16
2017-04-08T03:19:29.339Z,1016.16
2017-04-08T03:20:29.359Z,1016.16
2017-04-08T03:21:29.380Z,1016.18
2017-04-08T03:22:29.401Z,1016.16
2017-04-08T03:23:29.421Z,1016.15
2017-04-08T03:24:29.442Z,1016.19
2017-04-08T03:25:29.463Z,1016.22
2017-04-08T03:26:29.484Z,1016.23
2017-04-08T03:27:29.503Z,1016.19
2017-04-08T03:28:29.525Z,1016.22
2017-04-08T03:30:29.567Z,1016.24
2017-04-08T03:31:29.588Z,1016.26
2017-04-08T03:32:29.608Z,1016.25
2017-04-08T03:33:29.629Z,1016.29
2017-04-08T03:34:29.649Z,1016.3
2017-04-08T03:35:29.670Z,1016.31
2017-04-08T03:36:29.691Z,1016.31
2017-04-08T03:37:29.712Z,1016.29
2017-04-08T03:38:29.732Z,1016.34
2017-04-08T03:39:29.753Z,1016.29
2017-04-08T03:40:29.774Z,1016.31
2017-04-08T03:41:29.795Z,1016.39
2017-04-08T03:42:29.817Z,1016.32
2017-04-08T03:43:29.836Z,1016.35
2017-04-08T03:44:29.857Z,1016.37
2017-04-08T03:46:29.898Z,1016.4
2017-04-08T03:47:29.920Z,1016.36
2017-04-08T03:48:29.940Z,1016.39
2017-04-08T03:49:29.960Z,1016.36
2017-04-08T03:50:29.983Z,1016.43
2017-04-08T03:51:30.003Z,1016.39
2017-04-08T03:52:30.025Z,1016.44
2017-04-08T03:53:30.044Z,1016.46
2017-04-08T03:54:30.064Z,1016.45
2017-04-08T03:55:30.185Z,1016.45
2017-04-08T03:56:30.105Z,1016.44
2017-04-08T03:57:30.127Z,1016.42
2017-04-08T03:58:30.147Z,1016.48
2017-04-08T03:59:30.168Z,1016.43
2017-04-08T04:00:30.188Z,1016.51
2017-04-08T04:02:30.230Z,1016.48
2017-04-08T04:03:30.251Z,1016.45
2017-04-08T04:04:30.271Z,1016.48
2017-04-08T04:05:30.292Z,1016.47
2017-04-08T04:06:30.313Z,1016.56
2017-04-08T04:07:30.333Z,1016.59
2017-04-08T04:08:30.354Z,1016.59
2017-04-08T04:09:30.374Z,1016.56
2017-04-08T04:10:30.395Z,1016.6
2017-04-08T04:11:30.415Z,1016.57
2017-04-08T04:12:30.436Z,1016.55
2017-04-08T04:13:30.457Z,1016.58
2017-04-08T04:14:30.478Z,1016.63
2017-04-08T04:15:30.499Z,1016.69
2017-04-08T04:17:30.541Z,1016.7
2017-04-08T04:18:30.561Z,1016.72
2017-04-08T04:19:30.583Z,1016.76
2017-04-08T04:20:30.603Z,1016.8
2017-04-08T04:21:30.624Z,1016.79
2017-04-08T04:22:30.644Z,1016.77
2017-04-08T04:23:30.665Z,1016.78
2017-04-08T04:24:30.685Z,1016.82
2017-04-08T04:25:30.705Z,1016.79
2017-04-08T04:26:30.727Z,1016.87
2017-04-08T04:27:30.748Z,1016.86
2017-04-08T04:28:30.769Z,1016.84
2017-04-08T04:29:30.788Z,1016.86
2017-04-08T04:30:30.809Z,1016.94
2017-04-08T04:31:30.830Z,1016.88
2017-04-08T04:32:30.851Z,1016.85
2017-04-08T04:33:30.871Z,1016.91
2017-04-08T04:34:30.891Z,1016.88
2017-04-08T04:35:30.912Z,1016.9
2017-04-08T04:36:30.932Z,1016.93
2017-04-08T04:37:30.953Z,1016.94
2017-04-08T04:38:30.974Z,1016.92
2017-04-08T04:39:30.995Z,1016.97
2017-04-08T04:40:31.015Z,1016.96
2017-04-08T04:41:31.036Z,1016.94
2017-04-08T04:42:31.057Z,1016.94
2017-04-08T04:43:31.078Z,1016.95
2017-04-08T04:44:31.098Z,1017
2017-04-08T04:45:31.119Z,1016.99
2017-04-08T04:46:31.139Z,1017
2017-04-08T04:47:31.160Z,1017.02
2017-04-08T04:49:31.201Z,1017.09
2017-04-08T04:50:31.223Z,1017.09
2017-04-08T04:51:31.243Z,1017.07
2017-04-08T04:52:31.265Z,1017.11
2017-04-08T04:53:31.285Z,1017.04
2017-04-08T04:54:31.305Z,1017.09
2017-04-08T04:55:31.326Z,1017.06
2017-04-08T04:56:31.347Z,1017.12
2017-04-08T04:57:31.367Z,1017.08
2017-04-08T04:58:31.388Z,1017.14
2017-04-08T04:59:31.409Z,1017.14
2017-04-08T05:00:31.430Z,1017.14
2017-04-08T05:01:31.450Z,1017.12
2017-04-08T05:02:31.471Z,1017.17
2017-04-08T05:03:31.491Z,1017.19
2017-04-08T05:05:31.533Z,1017.21
2017-04-08T05:06:31.553Z,1017.22
2017-04-08T05:07:31.574Z,1017.16
2017-04-08T05:08:31.596Z,1017.21
2017-04-08T05:09:31.615Z,1017.19
2017-04-08T05:10:31.637Z,1017.22
2017-04-08T05:11:31.657Z,1017.21
2017-04-08T05:12:31.678Z,1017.21
2017-04-08T05:13:31.699Z,1017.23
2017-04-08T05:14:31.719Z,1017.26
2017-04-08T05:15:31.744Z,1017.26
2017-04-08T05:16:31.761Z,1017.29
2017-04-08T05:17:31.781Z,1017.28
2017-04-08T05:18:31.801Z,1017.3
2017-04-08T05:19:31.822Z,1017.29
2017-04-08T05:21:31.864Z,1017.32
2017-04-08T05:22:31.884Z,1017.3
2017-04-08T05:23:31.906Z,1017.3
2017-04-08T05:24:31.926Z,1017.27
2017-04-08T05:25:31.947Z,1017.25
2017-04-08T05:26:31.967Z,1017.34
2017-04-08T05:27:31.989Z,1017.35
2017-04-08T05:28:32.009Z,1017.37
2017-04-08T05:29:32.030Z,1017.39
2017-04-08T05:30:32.050Z,1017.4
2017-04-08T05:31:32.071Z,1017.39
2017-04-08T05:32:32.091Z,1017.41
2017-04-08T05:33:32.112Z,1017.48
2017-04-08T05:34:32.134Z,1017.4
2017-04-08T05:35:32.153Z,1017.43
2017-04-08T05:37:32.195Z,1017.49
2017-04-08T05:38:32.216Z,1017.45
2017-04-08T05:39:32.237Z,1017.44
2017-04-08T05:40:32.258Z,1017.48
2017-04-08T05:41:32.279Z,1017.52
2017-04-08T05:42:32.300Z,1017.49
2017-04-08T05:43:32.320Z,1017.47
2017-04-08T05:44:32.341Z,1017.48
2017-04-08T05:45:32.362Z,1017.45
2017-04-08T05:46:32.382Z,1017.43
2017-04-08T05:47:32.404Z,1017.45
2017-04-08T05:48:32.425Z,1017.46
2017-04-08T05:49:32.445Z,1017.47
2017-04-08T05:50:32.466Z,1017.49
2017-04-08T05:52:32.507Z,1017.54
2017-04-08T05:53:32.528Z,1017.54
2017-04-08T05:54:32.551Z,1017.5
2017-04-08T05:55:32.571Z,1017.52
2017-04-08T05:56:32.591Z,1017.5
2017-04-08T05:57:32.612Z,1017.51
2017-04-08T05:58:32.634Z,1017.54
2017-04-08T05:59:32.654Z,1017.52
2017-04-08T06:00:32.674Z,1017.52
2017-04-08T06:01:32.695Z,1017.54
2017-04-08T06:02:32.717Z,1017.52
2017-04-08T06:03:32.738Z,1017.56
2017-04-08T06:04:32.758Z,1017.52
2017-04-08T06:05:32.779Z,1017.58
2017-04-08T06:06:32.800Z,1017.57
2017-04-08T06:07:32.824Z,1017.55
2017-04-08T06:08:32.843Z,1017.59
2017-04-08T06:09:32.864Z,1017.6
2017-04-08T06:10:32.884Z,1017.57
2017-04-08T06:11:33.206Z,1017.57
2017-04-08T06:12:32.927Z,1017.58
2017-04-08T06:13:32.948Z,1017.55
2017-04-08T06:14:32.970Z,1017.55
2017-04-08T06:15:32.991Z,1017.56
2017-04-08T06:16:33.011Z,1017.6
2017-04-08T06:17:33.034Z,1017.53
2017-04-08T06:18:33.054Z,1017.56
2017-04-08T06:19:33.075Z,1017.52
2017-04-08T06:20:33.097Z,1017.53
2017-04-08T06:21:33.218Z,1017.53
2017-04-08T06:22:33.138Z,1017.56
2017-04-08T06:24:33.181Z,1017.57
2017-04-08T06:25:33.202Z,1017.55
2017-04-08T06:26:33.222Z,1017.53
2017-04-08T06:27:33.244Z,1017.52
2017-04-08T06:28:33.265Z,1017.54
2017-04-08T06:29:33.287Z,1017.54
2017-04-08T06:30:33.307Z,1017.5
2017-04-08T06:31:33.329Z,1017.5
2017-04-08T06:32:33.350Z,1017.53
2017-04-08T06:33:33.371Z,1017.48
2017-04-08T06:34:33.392Z,1017.58
2017-04-08T06:35:33.414Z,1017.58
2017-04-08T06:36:33.436Z,1017.73
2017-04-08T06:37:33.456Z,1017.6
2017-04-08T06:38:33.477Z,1017.64
2017-04-08T06:40:33.525Z,1017.66
2017-04-08T06:41:33.542Z,1017.65
2017-04-08T06:42:33.568Z,1017.73
2017-04-08T06:43:33.586Z,1017.62
2017-04-08T06:44:33.606Z,1017.7
2017-04-08T06:45:33.628Z,1018.14
2017-04-08T06:46:33.650Z,1017.87
2017-04-08T06:47:33.672Z,1018.05
2017-04-08T06:48:33.693Z,1017.82
2017-04-08T06:49:33.715Z,1017.79
2017-04-08T06:50:33.738Z,1017.76
2017-04-08T06:51:33.760Z,1017.9
2017-04-08T06:52:33.781Z,1017.88
2017-04-08T06:53:33.804Z,1017.8
2017-04-08T06:54:33.826Z,1017.84
2017-04-08T06:56:33.870Z,1017.87
2017-04-08T06:57:33.893Z,1017.88
2017-04-08T06:58:33.916Z,1017.9
2017-04-08T06:59:33.936Z,1017.98
2017-04-08T07:00:33.959Z,1017.96
2017-04-08T07:01:33.981Z,1017.93
2017-04-08T07:02:34.005Z,1017.94
2017-04-08T07:03:34.026Z,1017.95
2017-04-08T07:04:34.048Z,1017.96
2017-04-08T07:05:34.070Z,1017.98
2017-04-08T07:06:34.092Z,1017.98
2017-04-08T07:07:34.114Z,1017.99
2017-04-08T07:08:34.137Z,1018.02
2017-04-08T07:09:34.160Z,1018.02
2017-04-08T07:10:34.181Z,1018.02
2017-04-08T07:12:34.226Z,1018.03
2017-04-08T07:13:34.248Z,1018.04
2017-04-08T07:14:34.270Z,1018.08
2017-04-08T07:15:34.292Z,1018.08
2017-04-08T07:16:34.315Z,1018.15
2017-04-08T07:17:34.336Z,1018.1
2017-04-08T07:18:34.358Z,1018.17
2017-04-08T07:19:34.381Z,1018.21
2017-04-08T07:20:34.404Z,1018.16
2017-04-08T07:21:34.425Z,1018.26
2017-04-08T07:22:34.448Z,1018.23
2017-04-08T07:23:34.470Z,1018.25
2017-04-08T07:24:34.492Z,1018.24
2017-04-08T07:25:34.515Z,1018.2
2017-04-08T07:27:34.560Z,1018.22
2017-04-08T07:28:34.581Z,1018.2
2017-04-08T07:29:34.604Z,1018.27
2017-04-08T07:30:34.626Z,1018.27
2017-04-08T07:31:34.650Z,1018.27
2017-04-08T07:32:34.670Z,1018.28
2017-04-08T07:33:34.693Z,1018.28
2017-04-08T07:34:34.716Z,1018.28
2017-04-08T07:35:34.737Z,1018.35
2017-04-08T07:36:34.759Z,1018.37
2017-04-08T07:37:34.782Z,1018.38
2017-04-08T07:38:34.804Z,1018.33
2017-04-08T07:39:34.825Z,1018.36
2017-04-08T07:40:34.899Z,1018.41
2017-04-08T07:41:34.871Z,1018.42
2017-04-08T07:42:34.893Z,1018.44
2017-04-08T07:43:34.916Z,1018.42
2017-04-08T07:44:34.939Z,1018.46
2017-04-08T07:45:34.961Z,1018.58
2017-04-08T07:46:34.982Z,1018.43
2017-04-08T07:47:35.005Z,1018.46
2017-04-08T07:48:35.027Z,1018.51
2017-04-08T07:49:35.051Z,1018.5
2017-04-08T07:50:35.073Z,1018.6
2017-04-08T07:51:35.095Z,1018.71
2017-04-08T07:52:35.118Z,1018.61
2017-04-08T07:53:35.141Z,1018.58
2017-04-08T07:54:35.162Z,1018.57
2017-04-08T07:55:35.185Z,1018.63
2017-04-08T07:56:35.208Z,1018.96
2017-04-08T07:57:35.230Z,1018.72
2017-04-08T07:59:35.276Z,1018.64
2017-04-08T08:00:35.299Z,1018.65
2017-04-08T08:01:35.322Z,1018.77
2017-04-08T08:02:35.344Z,1018.69
2017-04-08T08:03:35.368Z,1018.71
2017-04-08T08:04:35.392Z,1018.74
2017-04-08T08:05:35.413Z,1018.73
2017-04-08T08:06:35.436Z,1018.72
2017-04-08T08:07:35.460Z,1018.67
2017-04-08T08:08:35.482Z,1018.71
2017-04-08T08:09:35.505Z,1018.72
2017-04-08T08:10:35.528Z,1018.74
2017-04-08T08:11:35.551Z,1018.84
2017-04-08T08:12:35.573Z,1018.82
2017-04-08T08:13:35.597Z,1018.81
2017-04-08T08:15:35.643Z,1018.77
2017-04-08T08:16:35.666Z,1018.76
2017-04-08T08:17:35.689Z,1018.76
2017-04-08T08:18:35.712Z,1018.92
2017-04-08T08:19:35.736Z,1018.79
2017-04-08T08:20:35.758Z,1018.76
2017-04-08T08:21:35.783Z,1018.81
2017-04-08T08:22:35.807Z,1018.75
2017-04-08T08:23:35.830Z,1018.8
2017-04-08T08:24:35.854Z,1018.79
2017-04-08T08:25:35.878Z,1018.96
2017-04-08T08:26:35.903Z,1018.96
2017-04-08T08:27:35.926Z,1018.83
2017-04-08T08:28:35.950Z,1018.87
2017-04-08T08:29:35.976Z,1018.88
2017-04-08T08:31:36.023Z,1018.82
2017-04-08T08:32:36.048Z,1018.81
2017-04-08T08:33:36.072Z,1018.87
2017-04-08T08:34:36.096Z,1018.86
2017-04-08T08:35:36.120Z,1018.88
2017-04-08T08:36:36.145Z,1018.85
2017-04-08T08:37:36.169Z,1018.88
2017-04-08T08:38:36.193Z,1018.88
2017-04-08T08:39:36.217Z,1018.99
2017-04-08T08:40:36.242Z,1019.09
2017-04-08T08:41:36.265Z,1019.06
2017-04-08T08:42:36.291Z,1019.04
2017-04-08T08:43:36.316Z,1018.97
2017-04-08T08:44:36.341Z,1018.95
2017-04-08T08:45:36.364Z,1018.97
2017-04-08T08:47:36.416Z,1018.99
2017-04-08T08:48:36.440Z,1019.03
2017-04-08T08:49:36.466Z,1018.96
2017-04-08T08:50:36.490Z,1018.95
2017-04-08T08:51:36.516Z,1019
2017-04-08T08:52:36.542Z,1019.01
2017-04-08T08:53:36.565Z,1018.98
2017-04-08T08:54:36.591Z,1018.98
2017-04-08T08:55:36.617Z,1018.99
2017-04-08T08:56:36.642Z,1018.98
2017-04-08T08:57:36.667Z,1018.94
2017-04-08T08:58:36.693Z,1018.9
2017-04-08T08:59:36.719Z,1018.94
2017-04-08T09:00:36.744Z,1018.94
2017-04-08T09:02:36.796Z,1018.95
2017-04-08T09:03:36.821Z,1018.98
2017-04-08T09:04:36.848Z,1018.98
2017-04-08T09:05:36.874Z,1018.94
2017-04-08T09:06:36.900Z,1019.02
2017-04-08T09:07:36.925Z,1018.97
2017-04-08T09:08:36.952Z,1019.01
2017-04-08T09:09:36.978Z,1018.99
2017-04-08T09:10:37.003Z,1018.98
2017-04-08T09:11:37.028Z,1018.93
2017-04-08T09:12:37.055Z,1018.91
2017-04-08T09:13:37.081Z,1018.94
2017-04-08T09:14:37.106Z,1018.91
2017-04-08T09:15:37.132Z,1018.97
2017-04-08T09:16:37.157Z,1018.99
2017-04-08T09:17:37.184Z,1019.03
2017-04-08T09:18:37.459Z,1019.04
2017-04-08T09:19:37.235Z,1019.09
2017-04-08T09:20:37.260Z,1019.12
2017-04-08T09:21:37.285Z,1019.08
2017-04-08T09:22:37.312Z,1019.1
2017-04-08T09:23:37.337Z,1019.08
2017-04-08T09:24:37.364Z,1019.11
2017-04-08T09:25:37.389Z,1019.09
2017-04-08T09:26:37.414Z,1019.08
2017-04-08T09:27:37.440Z,1019.08
2017-04-08T09:28:37.466Z,1019.15
2017-04-08T09:29:37.490Z,1019.16
2017-04-08T09:30:37.517Z,1019.19
2017-04-08T09:31:37.542Z,1019.18
2017-04-08T09:32:37.566Z,1019.15
2017-04-08T09:34:37.618Z,1019.16
2017-04-08T09:35:37.643Z,1019.15
2017-04-08T09:36:37.668Z,1019.14
2017-04-08T09:37:37.693Z,1019.18
2017-04-08T09:38:37.719Z,1019.16
2017-04-08T09:39:37.743Z,1019.16
2017-04-08T09:40:37.768Z,1019.23
2017-04-08T09:41:37.793Z,1019.23
2017-04-08T09:42:37.819Z,1019.16
2017-04-08T09:43:37.844Z,1019.15
2017-04-08T09:44:37.869Z,1019.15
2017-04-08T09:45:37.895Z,1019.11
2017-04-08T09:46:37.920Z,1019.1
2017-04-08T09:47:37.947Z,1019.15
2017-04-08T09:48:37.970Z,1019.09
2017-04-08T09:50:38.024Z,1019.03
2017-04-08T09:51:38.045Z,1019.09
2017-04-08T09:52:38.071Z,1019.1
2017-04-08T09:53:38.095Z,1019.13
2017-04-08T09:54:38.120Z,1019.14
2017-04-08T09:55:38.145Z,1019.14
2017-04-08T09:56:38.170Z,1019.16
2017-04-08T09:57:38.196Z,1019.19
2017-04-08T09:58:38.219Z,1019.16
2017-04-08T09:59:38.244Z,1019.17
2017-04-08T10:00:38.270Z,1019.15
2017-04-08T10:01:38.295Z,1019.2
2017-04-08T10:02:38.319Z,1019.21
2017-04-08T10:03:38.395Z,1019.22
2017-04-08T10:04:38.370Z,1019.2
2017-04-08T10:06:38.420Z,1019.18
2017-04-08T10:07:38.445Z,1019.14
2017-04-08T10:08:38.470Z,1019.24
2017-04-08T10:09:38.495Z,1019.17
2017-04-08T10:10:38.520Z,1019.15
2017-04-08T10:11:38.545Z,1019.08
2017-04-08T10:12:38.572Z,1019.14
2017-04-08T10:13:38.596Z,1019.17
2017-04-08T10:14:38.622Z,1019.15
2017-04-08T10:15:38.648Z,1019.2
2017-04-08T10:16:38.672Z,1019.15
2017-04-08T10:17:38.698Z,1019.14
2017-04-08T10:18:38.723Z,1019.12
2017-04-08T10:19:38.749Z,1019.14
2017-04-08T10:20:38.774Z,1019.14
2017-04-08T10:22:38.825Z,1019.15
2017-04-08T10:23:38.850Z,1019.11
2017-04-08T10:24:38.876Z,1019.2
2017-04-08T10:25:38.900Z,1019.13
2017-04-08T10:26:38.926Z,1019.23
2017-04-08T10:27:38.951Z,1019.28
2017-04-08T10:28:38.976Z,1019.25
2017-04-08T10:29:39.001Z,1019.25
2017-04-08T10:30:39.027Z,1019.26
2017-04-08T10:31:39.051Z,1019.2
2017-04-08T10:32:39.076Z,1019.25
2017-04-08T10:33:39.102Z,1019.19
2017-04-08T10:34:39.127Z,1019.16
2017-04-08T10:35:39.152Z,1019.14
2017-04-08T10:37:39.203Z,1019.08
2017-04-08T10:38:39.228Z,1019.16
2017-04-08T10:39:39.253Z,1019.14
2017-04-08T10:40:39.279Z,1019.12
2017-04-08T10:41:39.304Z,1019.12
2017-04-08T10:42:39.328Z,1019.08
2017-04-08T10:43:39.354Z,1019.1
2017-04-08T10:44:39.378Z,1019.09
2017-04-08T10:45:39.429Z,1019.15
2017-04-08T10:46:39.428Z,1019.09
2017-04-08T10:47:39.453Z,1019.1
2017-04-08T10:48:39.479Z,1019.09
2017-04-08T10:49:39.503Z,1019.02
2017-04-08T10:50:39.529Z,1019.03
2017-04-08T10:51:39.553Z,1019.04
2017-04-08T10:52:39.579Z,1019.04
2017-04-08T10:53:39.603Z,1018.98
2017-04-08T10:54:39.628Z,1019.06
2017-04-08T10:55:39.654Z,1019.02
2017-04-08T10:56:39.677Z,1019
2017-04-08T10:57:39.703Z,1018.98
2017-04-08T10:58:39.728Z,1018.94
2017-04-08T10:59:39.754Z,1018.95
2017-04-08T11:00:39.778Z,1018.96
2017-04-08T11:01:39.804Z,1018.97
2017-04-08T11:02:39.829Z,1018.87
2017-04-08T11:03:39.855Z,1018.88
2017-04-08T11:04:39.880Z,1018.8
2017-04-08T11:05:39.905Z,1018.91
2017-04-08T11:06:39.930Z,1018.87
2017-04-08T11:07:39.954Z,1018.83
2017-04-08T11:09:40.005Z,1018.87
2017-04-08T11:10:40.031Z,1018.86
2017-04-08T11:11:40.055Z,1018.88
2017-04-08T11:12:40.081Z,1018.85
2017-04-08T11:13:40.107Z,1018.84
2017-04-08T11:14:40.132Z,1018.8
2017-04-08T11:15:40.156Z,1018.81
2017-04-08T11:16:40.182Z,1018.82
2017-04-08T11:17:40.207Z,1018.79
2017-04-08T11:18:40.232Z,1018.79
2017-04-08T11:19:40.257Z,1018.7
2017-04-08T11:20:40.283Z,1018.76
2017-04-08T11:21:40.308Z,1018.75
2017-04-08T11:22:40.333Z,1018.78
2017-04-08T11:23:40.359Z,1018.72
2017-04-08T11:25:40.409Z,1018.79
2017-04-08T11:26:40.434Z,1018.76
2017-04-08T11:27:40.459Z,1018.77
2017-04-08T11:28:40.485Z,1018.73
2017-04-08T11:29:40.509Z,1018.75
2017-04-08T11:30:40.535Z,1018.72
2017-04-08T11:31:40.561Z,1018.85
2017-04-08T11:32:40.586Z,1018.77
2017-04-08T11:33:40.611Z,1018.74
2017-04-08T11:34:40.636Z,1018.76
2017-04-08T11:35:40.661Z,1018.69
2017-04-08T11:36:40.686Z,1018.75
2017-04-08T11:37:40.711Z,1018.7
2017-04-08T11:38:40.736Z,1018.67
2017-04-08T11:39:41.013Z,1018.65
2017-04-08T11:41:40.812Z,1018.61
2017-04-08T11:42:40.836Z,1018.64
2017-04-08T11:43:40.862Z,1018.65
2017-04-08T11:44:40.885Z,1018.68
2017-04-08T11:45:40.912Z,1018.67
2017-04-08T11:46:40.937Z,1018.67
2017-04-08T11:47:40.963Z,1018.66
2017-04-08T11:48:40.987Z,1018.68
2017-04-08T11:49:41.012Z,1018.62
2017-04-08T11:50:41.038Z,1018.62
2017-04-08T11:51:41.062Z,1018.57
2017-04-08T11:52:41.087Z,1018.59
2017-04-08T11:53:41.113Z,1018.56
2017-04-08T11:54:41.138Z,1018.55
2017-04-08T11:55:41.163Z,1018.59
2017-04-08T11:57:41.214Z,1018.59
2017-04-08T11:58:41.239Z,1018.62
2017-04-08T11:59:41.263Z,1018.59
2017-04-08T12:00:41.292Z,1018.63
2017-04-08T12:01:41.314Z,1018.59
2017-04-08T12:02:41.338Z,1018.6
2017-04-08T12:03:41.365Z,1018.57
2017-04-08T12:04:41.389Z,1018.59
2017-04-08T12:05:41.415Z,1018.53
2017-04-08T12:06:41.439Z,1018.53
2017-04-08T12:07:41.464Z,1018.65
2017-04-08T12:08:41.489Z,1018.59
2017-04-08T12:09:41.515Z,1018.62
2017-04-08T12:10:41.542Z,1018.57
2017-04-08T12:12:41.590Z,1018.53
2017-04-08T12:13:41.614Z,1018.51
2017-04-08T12:14:41.639Z,1018.52
2017-04-08T12:15:41.665Z,1018.5
2017-04-08T12:16:41.690Z,1018.41
2017-04-08T12:17:41.714Z,1018.57
2017-04-08T12:18:41.739Z,1018.52
2017-04-08T12:19:41.764Z,1018.58
2017-04-08T12:20:41.789Z,1018.5
2017-04-08T12:21:41.815Z,1018.49
2017-04-08T12:22:41.868Z,1018.54
2017-04-08T12:23:41.865Z,1018.56
2017-04-08T12:24:41.889Z,1018.53
2017-04-08T12:25:41.915Z,1018.51
2017-04-08T12:26:41.940Z,1018.54
2017-04-08T12:27:41.966Z,1018.46
2017-04-08T12:28:41.990Z,1018.4
2017-04-08T12:29:42.016Z,1018.47
2017-04-08T12:30:42.041Z,1018.43
2017-04-08T12:31:42.066Z,1018.48
2017-04-08T12:32:42.091Z,1018.4
2017-04-08T12:33:42.116Z,1018.49
2017-04-08T12:34:42.142Z,1018.44
2017-04-08T12:35:42.166Z,1018.39
2017-04-08T12:36:42.192Z,1018.4
2017-04-08T12:37:42.217Z,1018.4
2017-04-08T12:38:42.243Z,1018.5
2017-04-08T12:39:42.267Z,1018.43
2017-04-08T12:40:42.292Z,1018.38
2017-04-08T12:41:42.318Z,1018.38
2017-04-08T12:42:42.342Z,1018.21
2017-04-08T12:44:42.393Z,1018.34
2017-04-08T12:45:42.419Z,1018.34
2017-04-08T12:46:42.443Z,1018.36
2017-04-08T12:47:42.468Z,1018.36
2017-04-08T12:48:42.494Z,1018.36
2017-04-08T12:49:42.519Z,1018.38